ZW-0035 weather

Public forecast

Using degrees Celsius for public forecast. Weather courtesy of forecast.io.

Closest aviation weather report (METAR) to Gokwe North Airport

Report is more than 6 hours old.

Closest report is Kariba International Airport, 68.9 nm (127.5 km) NNE. Retrieved 2020/08/12 09:00 UTC (3 days ago):

FVKB 120900Z 31008KT CAVOK 26/09 Q1020

Closest aviation forecast (TAF) to Gokwe North Airport

Forecast is more than 12 hours old.

Closest forecast is Kariba International Airport, 68.9 nm (127.5 km) NNE. Retrieved 2018/08/24 06:00 UTC (2 years ago):

TAF FVKB 240400Z 2406/2416 27005KT CAVOK